Time;durP1;ratioP1;P1;durP2;ratioP2;P2;SDS_P1;SDS_P2;PMS_P1;PMS_P2;Temp;Humidity;BMP_temperature;BMP_pressure;BME280_temperature;BME280_humidity;BME280_pressure;Samples;Min_cycle;Max_cycle;Signal;HPM_P1;HPM_P2
2021/08/14 00:00:22;;;;;;;19.97;17.97;;;;;;;19.10;83.64;99361.00;124860;1093;64226;-85
2021/08/14 00:03:08;;;;;;;21.23;19.13;;;;;;;19.12;83.79;99359.01;124846;1093;64177;-85
2021/08/14 00:05:35;;;;;;;18.10;16.30;;;;;;;19.17;84.25;99356.69;124900;1093;64226;-85
2021/08/14 00:08:01;;;;;;;19.00;16.20;;;;;;;19.17;83.66;99349.45;124863;1093;64382;-85
2021/08/14 00:10:28;;;;;;;18.27;16.40;;;;;;;19.18;83.90;99348.44;124887;1093;64257;-85
2021/08/14 00:12:54;;;;;;;19.73;17.83;;;;;;;19.17;84.18;99349.45;124893;1093;64268;-85
2021/08/14 00:15:21;;;;;;;21.83;19.60;;;;;;;19.21;84.56;99345.44;124897;1093;64265;-85
2021/08/14 00:17:48;;;;;;;21.40;19.23;;;;;;;19.24;84.33;99350.53;124859;1093;64316;-85
2021/08/14 00:20:14;;;;;;;22.67;18.27;;;;;;;19.27;84.70;99343.98;124870;1093;64276;-85
2021/08/14 00:22:41;;;;;;;21.33;18.73;;;;;;;19.25;84.71;99340.61;124887;1093;64817;-85
2021/08/14 00:25:09;;;;;;;20.15;18.05;;;;;;;19.27;84.58;99339.45;124881;1092;64276;-85
2021/08/14 00:27:37;;;;;;;18.93;16.97;;;;;;;19.26;84.61;99331.48;124906;1093;64267;-85
2021/08/14 00:30:05;;;;;;;20.20;18.10;;;;;;;19.25;85.13;99327.09;124869;1093;64213;-85
2021/08/14 00:32:32;;;;;;;19.67;17.50;;;;;;;19.27;85.19;99327.77;124913;1093;64351;-86
2021/08/14 00:34:58;;;;;;;18.50;16.70;;;;;;;19.29;85.34;99325.77;124948;1093;64239;-86
2021/08/14 00:37:25;;;;;;;20.57;18.40;;;;;;;19.29;85.55;99323.91;124905;1093;64249;-85
2021/08/14 00:39:51;;;;;;;19.00;17.03;;;;;;;19.28;85.73;99330.34;124875;1093;64265;-85
2021/08/14 00:42:18;;;;;;;19.13;17.33;;;;;;;19.27;85.98;99327.77;124892;1093;64417;-85
2021/08/14 00:44:45;;;;;;;19.70;17.70;;;;;;;19.27;85.95;99325.94;124913;1093;64388;-85
2021/08/14 00:47:11;;;;;;;20.75;18.65;;;;;;;19.26;86.05;99318.81;124882;1093;64418;-86
2021/08/14 00:49:38;;;;;;;18.83;17.03;;;;;;;19.28;86.50;99319.52;124853;1093;64389;-85
2021/08/14 00:52:05;;;;;;;18.70;16.45;;;;;;;19.26;86.02;99320.67;124894;1093;64191;-85
2021/08/14 00:54:31;;;;;;;18.20;16.50;;;;;;;19.26;85.89;99317.97;124887;1093;64207;-85
2021/08/14 00:56:58;;;;;;;20.80;16.67;;;;;;;19.25;85.94;99318.98;124813;1093;64737;-85
2021/08/14 00:59:29;;;;;;;18.10;16.25;;;;;;;19.21;86.24;99318.41;124841;1093;64398;-85
2021/08/14 01:01:56;;;;;;;19.47;16.23;;;;;;;19.19;86.24;99323.11;124926;1093;64271;-85
2021/08/14 01:04:22;;;;;;;17.60;16.00;;;;;;;19.16;86.43;99318.02;124899;1093;64460;-85
2021/08/14 01:06:51;;;;;;;18.97;16.43;;;;;;;19.18;86.16;99317.88;124878;1093;64459;-85
2021/08/14 01:09:17;;;;;;;17.97;15.97;;;;;;;19.23;86.21;99320.98;124917;1093;64276;-85
2021/08/14 01:11:44;;;;;;;19.70;15.33;;;;;;;19.28;86.22;99324.93;124868;1093;64597;-85
2021/08/14 01:14:12;;;;;;;17.83;16.13;;;;;;;19.34;86.37;99322.63;124946;1093;64271;-85
2021/08/14 01:16:40;;;;;;;16.93;15.23;;;;;;;19.39;86.64;99314.92;124866;1093;64191;-85
2021/08/14 01:19:07;;;;;;;16.67;15.07;;;;;;;19.40;86.29;99309.34;124883;1092;64268;-85
2021/08/14 01:21:34;;;;;;;17.85;15.95;;;;;;;19.43;86.10;99313.59;124843;1093;64338;-86
2021/08/14 01:24:02;;;;;;;17.17;15.47;;;;;;;19.42;86.18;99310.05;124862;1093;64271;-86
2021/08/14 01:26:31;;;;;;;17.40;15.57;;;;;;;19.41;86.40;99312.92;124881;1093;64250;-86
2021/08/14 01:28:57;;;;;;;16.50;14.90;;;;;;;19.38;86.19;99315.91;124890;1093;64416;-85
2021/08/14 01:31:24;;;;;;;17.43;15.40;;;;;;;19.38;86.37;99313.20;124848;1093;64303;-86
2021/08/14 01:33:50;;;;;;;17.33;15.70;;;;;;;19.39;85.98;99310.36;124909;1093;64284;-86
2021/08/14 01:36:17;;;;;;;18.20;16.50;;;;;;;19.35;86.24;99308.95;124883;1093;64431;-86
2021/08/14 01:38:45;;;;;;;17.40;15.63;;;;;;;19.29;85.96;99309.56;124893;1093;64334;-86
2021/08/14 01:41:11;;;;;;;16.93;15.20;;;;;;;19.27;86.29;99303.45;124915;1093;64294;-86
2021/08/14 01:44:00;;;;;;;16.77;14.53;;;;;;;19.24;86.41;99310.00;124929;1093;64275;-85
2021/08/14 01:46:30;;;;;;;16.43;14.77;;;;;;;19.23;86.43;99310.17;124820;1092;64316;-86
2021/08/14 01:48:58;;;;;;;15.53;14.13;;;;;;;19.21;86.36;99304.91;124924;1091;64281;-86
2021/08/14 01:51:25;;;;;;;17.03;15.43;;;;;;;19.19;86.12;99309.60;124894;1093;64310;-86
2021/08/14 01:53:58;;;;;;;15.87;14.47;;;;;;;19.19;86.38;99306.05;124959;1093;64211;-86
2021/08/14 01:56:26;;;;;;;16.43;14.37;;;;;;;19.22;86.40;99309.33;124899;1093;64265;-86
2021/08/14 01:58:53;;;;;;;16.20;14.50;;;;;;;19.24;86.47;99310.00;124910;1093;64357;-86
2021/08/14 02:01:20;;;;;;;16.33;14.80;;;;;;;19.23;86.35;99305.61;124872;1093;64413;-86
2021/08/14 02:03:47;;;;;;;16.00;14.43;;;;;;;19.28;86.68;99305.17;124894;1093;64354;-86
2021/08/14 02:06:17;;;;;;;16.33;14.80;;;;;;;19.25;86.93;99300.07;124915;1093;64314;-86
2021/08/14 02:08:43;;;;;;;17.20;15.35;;;;;;;19.15;86.83;99312.77;124865;1093;64218;-86
2021/08/14 02:11:12;;;;;;;18.27;16.43;;;;;;;19.08;86.90;99317.91;124904;1093;64191;-86
2021/08/14 02:13:40;;;;;;;17.27;15.57;;;;;;;19.05;87.88;99321.77;124911;1093;64606;-86
2021/08/14 02:16:07;;;;;;;18.30;16.50;;;;;;;19.00;88.40;99324.05;124894;1092;64288;-86
2021/08/14 02:18:33;;;;;;;17.57;15.77;;;;;;;18.96;88.61;99319.13;124913;1092;64338;-84
2021/08/14 02:21:01;;;;;;;17.23;15.33;;;;;;;18.95;89.06;99322.80;124892;1093;64181;-84
2021/08/14 02:23:27;;;;;;;17.73;15.47;;;;;;;18.94;89.41;99329.22;124853;1093;64276;-84
2021/08/14 02:25:54;;;;;;;16.67;14.87;;;;;;;18.84;91.06;99304.94;124869;1093;64319;-86
2021/08/14 02:28:20;;;;;;;19.70;14.10;;;;;;;18.73;90.80;99299.69;124942;1093;64257;-85
2021/08/14 02:30:47;;;;;;;16.90;13.90;;;;;;;18.72;91.54;99293.45;124885;1093;64248;-85
2021/08/14 02:33:14;;;;;;;14.45;12.95;;;;;;;18.70;91.03;99278.39;124751;1093;64287;-85
2021/08/14 02:35:40;;;;;;;14.93;13.40;;;;;;;18.74;92.14;99272.53;124838;1093;64552;-85
2021/08/14 02:38:07;;;;;;;13.77;12.30;;;;;;;18.80;92.07;99274.69;124880;1093;64262;-85
2021/08/14 02:40:34;;;;;;;16.13;11.50;;;;;;;18.79;92.01;99275.67;124865;1093;64260;-86
2021/08/14 02:43:02;;;;;;;12.20;10.90;;;;;;;18.81;91.65;99275.53;124886;1093;64284;-86
2021/08/14 02:45:29;;;;;;;11.30;10.13;;;;;;;18.77;91.86;99277.69;124901;1093;64399;-86
2021/08/14 02:47:56;;;;;;;12.25;10.45;;;;;;;18.71;92.41;99289.03;124896;1093;65738;-86
2021/08/14 02:50:23;;;;;;;12.13;10.20;;;;;;;18.60;92.16;99279.27;124869;1093;64279;-86
2021/08/14 02:52:50;;;;;;;12.50;10.73;;;;;;;18.60;92.59;99289.22;124876;1092;64268;-86
2021/08/14 02:55:17;;;;;;;13.23;10.97;;;;;;;18.52;92.59;99284.55;124943;1093;64391;-86
2021/08/14 02:57:43;;;;;;;13.90;11.87;;;;;;;18.50;92.88;99283.83;124895;1093;64747;-87
2021/08/14 03:00:10;;;;;;;15.77;12.80;;;;;;;18.55;93.59;99286.95;124885;1093;64374;-86
2021/08/14 03:02:37;;;;;;;14.97;13.47;;;;;;;18.56;93.61;99290.49;124869;1093;64308;-86
2021/08/14 03:05:04;;;;;;;16.73;15.03;;;;;;;18.54;94.04;99289.81;124874;1093;64274;-86
2021/08/14 03:07:31;;;;;;;16.10;14.10;;;;;;;18.51;94.14;99293.66;124957;1093;64210;-86
2021/08/14 03:09:59;;;;;;;16.70;15.10;;;;;;;18.46;93.86;99287.84;124868;1092;64267;-86
2021/08/14 03:12:26;;;;;;;15.67;14.27;;;;;;;18.46;94.22;99285.14;124917;1093;64217;-86
2021/08/14 03:14:53;;;;;;;20.30;15.07;;;;;;;18.49;94.03;99284.00;124928;1093;64346;-86
2021/08/14 03:17:19;;;;;;;18.10;16.20;;;;;;;18.55;95.22;99286.10;124845;1093;64696;-86
2021/08/14 03:19:46;;;;;;;18.73;16.83;;;;;;;18.60;95.26;99290.06;124873;1093;64285;-86
2021/08/14 03:22:12;;;;;;;19.40;17.20;;;;;;;18.59;94.72;99295.63;124913;1092;64284;-86
2021/08/14 03:24:39;;;;;;;16.77;15.07;;;;;;;18.60;94.71;99292.76;124870;1093;64405;-86
2021/08/14 03:27:06;;;;;;;15.55;14.15;;;;;;;18.61;94.95;99290.91;124853;1093;64322;-86
2021/08/14 03:29:33;;;;;;;18.77;16.97;;;;;;;18.63;94.92;99294.31;124867;1092;64287;-86
2021/08/14 03:31:59;;;;;;;19.47;17.47;;;;;;;18.66;94.93;99285.92;124853;1093;64280;-86
2021/08/14 03:34:26;;;;;;;18.83;16.87;;;;;;;18.67;94.67;99289.46;124874;1093;64244;-87
2021/08/14 03:36:53;;;;;;;17.43;15.73;;;;;;;18.64;94.67;99296.88;124915;1093;64351;-86
2021/08/14 03:39:19;;;;;;;17.77;15.97;;;;;;;18.62;94.51;99296.17;124772;1093;64379;-86
2021/08/14 03:41:46;;;;;;;17.30;15.60;;;;;;;18.63;94.58;99299.71;124884;1093;64274;-86
2021/08/14 03:44:12;;;;;;;16.57;15.07;;;;;;;18.65;94.74;99303.13;124962;1093;64287;-86
2021/08/14 03:46:39;;;;;;;16.80;15.20;;;;;;;18.65;94.29;99305.83;124866;1092;64331;-86
2021/08/14 03:49:05;;;;;;;17.15;15.50;;;;;;;18.64;94.41;99304.98;124887;1092;64358;-86
2021/08/14 03:51:32;;;;;;;16.90;15.43;;;;;;;18.61;94.17;99304.41;124879;1093;64386;-86
2021/08/14 03:53:59;;;;;;;18.87;16.87;;;;;;;18.57;94.32;99305.70;124827;1093;64399;-86
2021/08/14 03:56:25;;;;;;;17.47;15.77;;;;;;;18.61;94.30;99302.55;124939;1093;64284;-86
2021/08/14 03:58:51;;;;;;;17.73;16.13;;;;;;;18.67;94.63;99293.03;124914;1093;64270;-86
2021/08/14 04:01:18;;;;;;;17.78;16.10;;;;;;;18.72;94.37;99289.88;124880;1093;64421;-86
2021/08/14 04:03:44;;;;;;;17.33;15.63;;;;;;;18.77;94.02;99293.89;124925;1093;64284;-86
2021/08/14 04:06:11;;;;;;;16.40;14.90;;;;;;;18.85;93.74;99293.13;124856;1093;64243;-86
2021/08/14 04:08:37;;;;;;;16.60;15.00;;;;;;;18.98;93.69;99287.39;124887;1093;64609;-86
2021/08/14 04:11:06;;;;;;;16.20;14.65;;;;;;;19.13;93.15;99294.00;124881;1093;64249;-86
2021/08/14 04:13:34;;;;;;;16.87;15.33;;;;;;;19.32;92.59;99295.74;124878;1093;64425;-86
2021/08/14 04:16:01;;;;;;;23.13;20.73;;;;;;;19.70;93.58;99288.43;124919;1093;64303;-86
2021/08/14 04:18:28;;;;;;;21.27;18.97;;;;;;;20.12;92.29;99293.20;124923;1093;64284;-87
2021/08/14 04:20:55;;;;;;;18.80;16.77;;;;;;;20.27;91.98;99282.65;124859;1093;64730;-86
2021/08/14 04:23:22;;;;;;;21.03;18.83;;;;;;;20.30;91.92;99285.03;124888;1093;64388;-87
2021/08/14 04:25:49;;;;;;;19.00;17.13;;;;;;;20.36;91.99;99282.56;124866;1093;64450;-86
2021/08/14 04:28:16;;;;;;;19.60;17.50;;;;;;;20.81;90.92;99273.39;124917;1093;64348;-87
2021/08/14 04:30:43;;;;;;;17.27;15.50;;;;;;;21.17;89.89;99289.48;124858;1093;64262;-87
2021/08/14 04:33:09;;;;;;;17.57;14.87;;;;;;;21.34;89.09;99292.24;124871;1093;64386;-86
2021/08/14 04:35:36;;;;;;;21.57;15.73;;;;;;;21.22;89.08;99295.27;124881;1092;64258;-86
2021/08/14 04:38:02;;;;;;;15.30;13.93;;;;;;;21.17;89.40;99291.31;124936;1093;64507;-85
2021/08/14 04:40:29;;;;;;;14.57;13.07;;;;;;;21.08;89.47;99295.86;124890;1093;64271;-86
2021/08/14 04:42:56;;;;;;;14.40;12.80;;;;;;;20.89;89.25;99296.96;124936;1093;64268;-86
2021/08/14 04:45:24;;;;;;;14.50;13.05;;;;;;;20.70;89.74;99289.92;124937;1093;64363;-86
2021/08/14 04:47:52;;;;;;;14.37;13.07;;;;;;;20.70;90.78;99299.91;124864;1093;64264;-86
2021/08/14 04:50:18;;;;;;;14.85;13.35;;;;;;;20.71;91.08;99301.59;124896;1092;64341;-86
2021/08/14 04:52:45;;;;;;;14.10;12.70;;;;;;;20.69;90.23;99309.03;124875;1093;64431;-86
2021/08/14 04:55:11;;;;;;;15.80;13.40;;;;;;;20.53;89.82;99307.03;124918;1093;64278;-86
2021/08/14 04:57:38;;;;;;;15.37;13.77;;;;;;;20.40;89.74;99310.15;124962;1093;64335;-85
2021/08/14 05:00:05;;;;;;;17.13;14.80;;;;;;;20.39;90.86;99305.75;124925;1093;64403;-85
2021/08/14 05:02:32;;;;;;;15.53;14.03;;;;;;;20.44;90.52;99316.13;124962;1093;64290;-86
2021/08/14 05:04:58;;;;;;;17.13;15.47;;;;;;;20.45;90.27;99313.23;124936;1091;64422;-86
2021/08/14 05:07:25;;;;;;;16.00;14.60;;;;;;;20.66;90.16;99312.91;124908;1093;64242;-86
2021/08/14 05:09:53;;;;;;;15.37;13.87;;;;;;;20.81;89.93;99319.44;124919;1093;64284;-87
2021/08/14 05:12:19;;;;;;;16.00;14.50;;;;;;;21.25;89.29;99319.33;124823;1093;64271;-86
2021/08/14 05:14:46;;;;;;;15.80;14.40;;;;;;;21.80;87.54;99318.00;124918;1091;64188;-86
2021/08/14 05:17:12;;;;;;;16.53;15.03;;;;;;;22.29;86.24;99323.48;124832;1093;64425;-86
2021/08/14 05:19:38;;;;;;;14.63;13.23;;;;;;;22.60;85.10;99319.23;124770;1092;64395;-86
2021/08/14 05:22:05;;;;;;;14.80;13.40;;;;;;;22.90;84.88;99321.19;124853;1093;64223;-86
2021/08/14 05:24:31;;;;;;;15.15;13.55;;;;;;;23.23;83.69;99326.57;124911;1093;64265;-86
2021/08/14 05:26:58;;;;;;;15.80;14.33;;;;;;;23.42;83.74;99315.25;124885;1093;64393;-86
2021/08/14 05:29:24;;;;;;;15.10;13.60;;;;;;;23.57;82.66;99325.40;124869;1093;64376;-86
2021/08/14 05:31:51;;;;;;;15.47;13.97;;;;;;;23.47;83.23;99325.61;124944;1093;64299;-87
2021/08/14 05:34:17;;;;;;;15.10;13.80;;;;;;;23.90;82.71;99323.34;124819;1093;64188;-87
2021/08/14 05:36:43;;;;;;;14.20;12.93;;;;;;;24.29;81.14;99322.38;124888;1093;64386;-88
2021/08/14 05:39:10;;;;;;;14.87;13.57;;;;;;;24.64;81.13;99323.61;124856;1093;64830;-88
2021/08/14 05:41:42;;;;;;;14.60;13.10;;;;;;;25.00;79.19;99328.36;124903;1093;64389;-87
2021/08/14 05:44:08;;;;;;;14.07;12.67;;;;;;;25.08;79.21;99311.90;125012;1093;64306;-87
2021/08/14 05:46:35;;;;;;;12.20;11.00;;;;;;;25.44;78.65;99316.61;125015;1093;64354;-87
2021/08/14 05:49:01;;;;;;;13.85;11.80;;;;;;;25.75;77.70;99319.09;124982;1093;64294;-88
2021/08/14 05:51:28;;;;;;;12.50;10.60;;;;;;;25.76;77.24;99323.50;124902;1093;64393;-88
2021/08/14 05:53:54;;;;;;;13.30;12.00;;;;;;;25.74;76.55;99322.84;124940;1093;64361;-88
2021/08/14 05:56:21;;;;;;;13.37;12.03;;;;;;;25.35;76.45;99326.77;125160;1093;64287;-86
2021/08/14 05:58:47;;;;;;;12.60;11.30;;;;;;;25.14;76.36;99327.50;125210;1093;64279;-85
2021/08/14 06:01:13;;;;;;;12.43;11.00;;;;;;;25.16;77.10;99325.47;125235;1092;64408;-86
2021/08/14 06:03:40;;;;;;;13.00;11.60;;;;;;;25.55;76.73;99327.03;125058;1093;64265;-85
2021/08/14 06:06:08;;;;;;;14.07;11.80;;;;;;;25.79;75.85;99330.45;124802;1093;64337;-87
2021/08/14 06:08:35;;;;;;;12.70;11.13;;;;;;;26.00;74.97;99324.20;124846;1093;64284;-89
2021/08/14 06:11:02;;;;;;;12.83;11.73;;;;;;;26.27;74.87;99320.67;124843;1093;64369;-87
2021/08/14 06:13:28;;;;;;;14.73;12.10;;;;;;;26.43;75.09;99326.92;124865;1093;64359;-88
2021/08/14 06:15:55;;;;;;;12.83;11.53;;;;;;;26.49;74.16;99331.61;124822;1093;64421;-87
2021/08/14 06:18:22;;;;;;;12.17;10.97;;;;;;;26.61;73.88;99334.67;124837;1093;64284;-85
2021/08/14 06:20:48;;;;;;;13.67;12.27;;;;;;;26.84;73.61;99332.54;124879;1093;64290;-87
2021/08/14 06:23:15;;;;;;;12.25;11.05;;;;;;;27.15;73.19;99337.58;124821;1093;64654;-87
2021/08/14 06:25:41;;;;;;;13.17;12.07;;;;;;;27.38;72.81;99328.23;124902;1093;64440;-85
2021/08/14 06:28:08;;;;;;;12.37;11.37;;;;;;;27.55;71.97;99335.07;124886;1093;64271;-87
2021/08/14 06:30:34;;;;;;;13.37;11.57;;;;;;;27.68;72.05;99334.28;124839;1093;64536;-86
2021/08/14 06:33:01;;;;;;;12.70;11.47;;;;;;;27.84;71.45;99326.78;124771;1093;64252;-86
2021/08/14 06:35:27;;;;;;;12.10;11.00;;;;;;;27.91;71.02;99330.36;124854;1092;64242;-85
2021/08/14 06:37:54;;;;;;;13.33;11.63;;;;;;;27.95;70.39;99337.13;124863;1093;64215;-85
2021/08/14 06:40:20;;;;;;;11.77;10.80;;;;;;;27.97;70.14;99338.61;124900;1092;64217;-86
2021/08/14 06:42:47;;;;;;;12.23;11.13;;;;;;;28.06;70.12;99338.41;124758;1093;64364;-86
2021/08/14 06:45:13;;;;;;;12.73;11.00;;;;;;;28.13;69.25;99333.80;124889;1092;64284;-86
2021/08/14 06:47:40;;;;;;;11.90;10.60;;;;;;;28.21;68.97;99339.08;124754;1093;64328;-86
2021/08/14 06:50:07;;;;;;;10.27;9.27;;;;;;;28.31;68.69;99335.94;124893;1093;64268;-86
2021/08/14 06:52:35;;;;;;;11.13;10.03;;;;;;;28.37;68.25;99344.16;124879;1093;64415;-86
2021/08/14 06:55:03;;;;;;;13.60;10.65;;;;;;;28.46;68.11;99342.08;124893;1093;64260;-86
2021/08/14 06:57:30;;;;;;;10.63;9.53;;;;;;;28.39;67.46;99338.48;124913;1093;64268;-86
2021/08/14 06:59:58;;;;;;;11.80;10.70;;;;;;;28.40;67.73;99340.98;124920;1093;64271;-85
2021/08/14 07:02:24;;;;;;;10.63;9.80;;;;;;;28.35;67.27;99337.20;124898;1093;64223;-85
2021/08/14 07:04:51;;;;;;;11.00;9.30;;;;;;;28.16;67.76;99353.41;124871;1093;64307;-85
2021/08/14 07:07:18;;;;;;;10.07;9.07;;;;;;;28.07;68.39;99345.57;124879;1093;64251;-86
2021/08/14 07:09:45;;;;;;;10.10;9.10;;;;;;;28.05;68.25;99343.06;124913;1093;64213;-85
2021/08/14 07:12:11;;;;;;;12.47;9.87;;;;;;;27.93;67.36;99331.84;124916;1093;64216;-85
2021/08/14 07:14:38;;;;;;;11.10;10.10;;;;;;;27.77;67.84;99349.47;124912;1092;64368;-85
2021/08/14 07:17:04;;;;;;;10.87;9.93;;;;;;;27.68;68.04;99342.50;124855;1093;64284;-85
2021/08/14 07:19:31;;;;;;;11.13;10.23;;;;;;;27.68;67.87;99341.66;124885;1093;64452;-86
2021/08/14 07:21:58;;;;;;;11.67;10.50;;;;;;;27.61;67.72;99344.36;124950;1093;64306;-86
2021/08/14 07:24:25;;;;;;;12.27;11.00;;;;;;;27.57;67.11;99351.31;124723;1093;64309;-86
2021/08/14 07:26:51;;;;;;;11.20;10.20;;;;;;;27.50;67.33;99345.78;124895;1093;64284;-86
2021/08/14 07:29:18;;;;;;;12.03;10.93;;;;;;;27.43;67.45;99341.33;124745;1093;64291;-86
2021/08/14 07:31:44;;;;;;;11.87;10.77;;;;;;;27.36;67.34;99344.05;124897;1093;64393;-86
2021/08/14 07:34:11;;;;;;;11.50;10.30;;;;;;;27.44;67.86;99337.56;124861;1093;64216;-86
2021/08/14 07:36:37;;;;;;;11.37;10.17;;;;;;;27.54;67.84;99338.87;124883;1093;64271;-86
2021/08/14 07:39:05;;;;;;;10.43;9.43;;;;;;;27.65;67.98;99340.17;124997;1093;64287;-86
2021/08/14 07:41:31;;;;;;;11.87;10.60;;;;;;;27.77;67.46;99338.51;124836;1093;64482;-85
2021/08/14 07:43:58;;;;;;;11.57;10.47;;;;;;;27.88;67.32;99328.88;124878;1093;64357;-86
2021/08/14 07:46:24;;;;;;;11.30;10.20;;;;;;;27.89;67.21;99327.84;124850;1093;64191;-86
2021/08/14 07:48:51;;;;;;;11.77;10.57;;;;;;;27.89;67.36;99336.06;124901;1093;64287;-86
2021/08/14 07:51:17;;;;;;;12.50;11.20;;;;;;;27.94;67.42;99339.03;124893;1093;64223;-86
2021/08/14 07:53:44;;;;;;;11.10;10.00;;;;;;;28.08;67.25;99334.42;124852;1093;64307;-86
2021/08/14 07:56:10;;;;;;;11.37;10.33;;;;;;;28.22;67.01;99332.53;124837;1093;64450;-86
2021/08/14 07:58:37;;;;;;;12.03;10.87;;;;;;;28.48;66.93;99333.65;124924;1093;64252;-86
2021/08/14 08:01:03;;;;;;;9.20;8.40;;;;;;;28.63;65.32;99337.88;124901;1093;64271;-86
2021/08/14 08:03:30;;;;;;;10.00;8.15;;;;;;;28.73;64.10;99322.91;124833;1093;64274;-86
2021/08/14 08:05:56;;;;;;;10.97;7.60;;;;;;;28.78;64.28;99328.56;124910;1093;64297;-85
2021/08/14 08:08:23;;;;;;;8.53;7.57;;;;;;;28.58;61.48;99331.34;124894;1093;64367;-85
2021/08/14 08:10:49;;;;;;;8.53;7.73;;;;;;;28.42;62.83;99330.66;124917;1092;64792;-86
2021/08/14 08:13:16;;;;;;;11.13;8.20;;;;;;;28.29;61.81;99329.81;124909;1093;64392;-85
2021/08/14 08:15:42;;;;;;;8.75;7.95;;;;;;;28.12;62.52;99332.97;124895;1093;64248;-85
2021/08/14 08:18:12;;;;;;;8.63;7.83;;;;;;;28.12;62.64;99329.35;124865;1093;64366;-85
2021/08/14 08:20:39;;;;;;;8.77;7.97;;;;;;;28.12;62.72;99332.09;124846;1092;64306;-85
2021/08/14 08:23:07;;;;;;;8.37;7.73;;;;;;;28.09;63.04;99338.00;124900;1093;64296;-86
2021/08/14 08:25:33;;;;;;;9.20;8.30;;;;;;;28.13;62.28;99336.54;124887;1093;64213;-86
2021/08/14 08:28:03;;;;;;;8.70;8.00;;;;;;;28.10;62.17;99334.22;124927;1093;64252;-86
2021/08/14 08:30:31;;;;;;;8.70;7.87;;;;;;;28.01;61.50;99339.03;124728;1093;64281;-86
2021/08/14 08:32:57;;;;;;;10.03;8.53;;;;;;;27.99;61.76;99333.78;124925;1093;64199;-86
2021/08/14 08:35:24;;;;;;;9.27;8.37;;;;;;;27.97;62.25;99330.39;124831;1093;64278;-86
2021/08/14 08:37:50;;;;;;;9.20;8.27;;;;;;;28.07;62.49;99332.74;124869;1093;64399;-86
2021/08/14 08:40:19;;;;;;;9.23;8.20;;;;;;;28.14;62.55;99327.26;124777;1093;64191;-86
2021/08/14 08:42:46;;;;;;;9.23;8.23;;;;;;;28.20;62.92;99330.02;124907;1093;64358;-86
2021/08/14 08:45:14;;;;;;;10.50;7.90;;;;;;;28.18;62.11;99328.55;124854;1093;64260;-86
2021/08/14 08:47:43;;;;;;;9.83;7.93;;;;;;;28.24;63.09;99331.28;124860;1093;64217;-86
2021/08/14 08:50:11;;;;;;;11.57;8.43;;;;;;;28.37;63.23;99330.45;124900;1093;64194;-84
2021/08/14 08:52:38;;;;;;;9.37;8.43;;;;;;;28.43;62.60;99321.41;124940;1092;64310;-86
2021/08/14 08:55:05;;;;;;;10.10;8.50;;;;;;;28.50;62.21;99323.33;124829;1093;64341;-87
2021/08/14 08:57:32;;;;;;;8.90;8.20;;;;;;;28.53;62.51;99322.90;124920;1093;64437;-86
2021/08/14 08:59:59;;;;;;;10.07;8.87;;;;;;;28.52;61.89;99316.58;124943;1093;64262;-86
2021/08/14 09:02:31;;;;;;;9.03;8.20;;;;;;;28.61;61.98;99317.20;124879;1093;64389;-85
2021/08/14 09:05:16;;;;;;;8.57;7.80;;;;;;;28.76;62.43;99323.31;124969;1092;64361;-84
2021/08/14 09:07:45;;;;;;;9.37;8.47;;;;;;;28.81;61.65;99315.28;124868;1093;64294;-85
2021/08/14 09:10:17;;;;;;;8.33;7.55;;;;;;;28.84;61.54;99314.02;124938;1093;64287;-85
2021/08/14 09:12:45;;;;;;;8.90;8.00;;;;;;;28.91;61.60;99313.98;124891;1093;64284;-86
2021/08/14 09:15:19;;;;;;;9.30;7.93;;;;;;;28.96;61.22;99319.67;124889;1093;64781;-86
2021/08/14 09:18:01;;;;;;;9.17;8.37;;;;;;;29.00;61.09;99313.56;124900;1093;64287;-85
2021/08/14 09:20:30;;;;;;;9.37;7.97;;;;;;;29.09;60.70;99309.54;124737;1093;64338;-86
2021/08/14 09:23:05;;;;;;;12.03;8.40;;;;;;;29.15;60.95;99315.23;124880;1092;64463;-86
2021/08/14 09:25:42;;;;;;;8.73;7.97;;;;;;;29.19;59.98;99300.86;124975;1093;64298;-86
2021/08/14 09:28:11;;;;;;;8.90;8.00;;;;;;;29.20;60.11;99301.70;124933;1093;64218;-86
2021/08/14 09:30:45;;;;;;;8.60;7.60;;;;;;;29.23;59.76;99304.88;124929;1093;64264;-85
2021/08/14 09:33:15;;;;;;;9.13;8.23;;;;;;;29.28;59.32;99305.08;124851;1093;64285;-85
2021/08/14 09:35:43;;;;;;;8.90;8.00;;;;;;;29.36;60.19;99293.01;124919;1093;64460;-85
2021/08/14 09:38:13;;;;;;;8.47;7.67;;;;;;;29.45;60.19;99299.92;124920;1093;64284;-84
2021/08/14 09:40:46;;;;;;;8.78;7.73;;;;;;;29.52;59.66;99287.02;124920;1093;64283;-85
2021/08/14 09:43:33;;;;;;;9.07;8.20;;;;;;;29.61;59.50;99300.50;124836;1093;64287;-85
2021/08/14 09:45:59;;;;;;;8.40;7.63;;;;;;;29.67;59.57;99299.64;124839;1093;64312;-85
2021/08/14 09:48:26;;;;;;;9.73;8.73;;;;;;;29.69;58.69;99295.61;124902;1094;64330;-85
2021/08/14 09:50:53;;;;;;;9.57;8.63;;;;;;;29.70;58.73;99286.33;124871;1093;64280;-85
2021/08/14 09:53:29;;;;;;;9.13;8.23;;;;;;;29.72;58.50;99284.18;124890;1093;64210;-85
2021/08/14 09:56:10;;;;;;;8.90;7.87;;;;;;;29.78;58.78;99287.98;124896;1093;64273;-85
2021/08/14 09:58:40;;;;;;;10.05;8.85;;;;;;;29.82;58.44;99293.86;124806;1093;64191;-85
2021/08/14 10:01:08;;;;;;;9.40;8.40;;;;;;;29.87;57.78;99294.88;124935;1093;64370;-85
2021/08/14 10:03:36;;;;;;;8.80;7.97;;;;;;;29.85;57.59;99297.00;124885;1093;64265;-86
2021/08/14 10:06:03;;;;;;;9.50;8.53;;;;;;;29.90;57.61;99296.34;124908;1091;64267;-85
2021/08/14 10:08:31;;;;;;;9.43;8.63;;;;;;;29.98;57.54;99291.42;124908;1093;64307;-85
2021/08/14 10:10:58;;;;;;;9.23;8.13;;;;;;;30.09;58.10;99289.86;124892;1093;64290;-86
2021/08/14 10:13:25;;;;;;;8.60;7.83;;;;;;;30.19;57.49;99283.88;124866;1093;64271;-85
2021/08/14 10:15:52;;;;;;;8.10;7.30;;;;;;;30.25;57.29;99284.92;124877;1092;64293;-85
2021/08/14 10:18:19;;;;;;;9.03;8.13;;;;;;;30.29;57.04;99283.42;124881;1093;64290;-85
2021/08/14 10:20:47;;;;;;;9.53;7.87;;;;;;;30.29;56.04;99276.02;124861;1093;64280;-86
2021/08/14 10:23:20;;;;;;;8.70;7.90;;;;;;;30.26;56.16;99275.63;124885;1093;64386;-85
2021/08/14 10:25:56;;;;;;;8.50;7.50;;;;;;;30.26;56.17;99273.71;124905;1093;64345;-85
2021/08/14 10:28:46;;;;;;;9.53;8.10;;;;;;;30.30;55.79;99272.18;124925;1093;64737;-85
2021/08/14 10:31:31;;;;;;;8.27;7.47;;;;;;;30.34;55.67;99269.84;124918;1093;64249;-85
2021/08/14 10:34:13;;;;;;;9.13;8.33;;;;;;;30.38;55.44;99271.06;124918;1092;64242;-87
2021/08/14 10:36:41;;;;;;;8.53;7.87;;;;;;;30.39;54.95;99265.35;124930;1093;64280;-86
2021/08/14 10:39:21;;;;;;;8.33;7.60;;;;;;;30.37;54.89;99269.39;124921;1093;64242;-85
2021/08/14 10:41:50;;;;;;;8.07;7.27;;;;;;;30.45;54.90;99273.77;124882;1093;64293;-86
2021/08/14 10:44:38;;;;;;;9.53;8.53;;;;;;;30.57;54.83;99263.69;124860;1093;64410;-87
2021/08/14 10:47:25;;;;;;;9.10;8.23;;;;;;;30.74;54.64;99258.47;124861;1093;64355;-87
2021/08/14 10:49:51;;;;;;;9.47;8.57;;;;;;;30.88;54.64;99254.52;124863;1093;64394;-86
2021/08/14 10:52:18;;;;;;;10.93;9.77;;;;;;;30.97;55.02;99250.41;124861;1092;64193;-85
2021/08/14 10:54:53;;;;;;;9.80;8.90;;;;;;;31.06;54.24;99248.19;124935;1092;64338;-86
2021/08/14 10:57:46;;;;;;;9.37;8.50;;;;;;;30.99;53.29;99245.52;124906;1093;64245;-85
2021/08/14 11:00:16;;;;;;;8.80;8.10;;;;;;;31.02;53.33;99241.47;124888;1093;64293;-85
2021/08/14 11:03:02;;;;;;;8.73;7.93;;;;;;;31.12;52.85;99238.99;124862;1093;64348;-85
2021/08/14 11:05:29;;;;;;;9.00;7.73;;;;;;;31.21;53.11;99232.12;124945;1093;64296;-85
2021/08/14 11:08:00;;;;;;;9.23;8.13;;;;;;;31.33;53.31;99234.08;124890;1093;64268;-85
2021/08/14 11:10:35;;;;;;;8.67;7.87;;;;;;;31.37;52.85;99227.92;124859;1093;64268;-86
2021/08/14 11:13:02;;;;;;;9.87;8.70;;;;;;;31.36;52.82;99226.22;124869;1093;64268;-85
2021/08/14 11:15:40;;;;;;;8.43;7.73;;;;;;;31.42;52.96;99227.23;124830;1093;64297;-86
2021/08/14 11:18:07;;;;;;;8.50;7.70;;;;;;;31.44;52.88;99231.44;124879;1093;64191;-86